createdAt,value
2022-08-12T00:02:20.852Z,100841.28
2022-08-12T00:05:16.751Z,100844.13
2022-08-12T00:08:09.437Z,100828.28
2022-08-12T00:11:09.817Z,100847.44
2022-08-12T00:14:04.041Z,100845.00
2022-08-12T00:16:56.625Z,100838.50
2022-08-12T00:19:51.271Z,100839.38
2022-08-12T00:22:42.559Z,100834.47
2022-08-12T00:25:55.754Z,100835.25
2022-08-12T00:29:01.715Z,100833.66
2022-08-12T00:31:53.272Z,100833.69
2022-08-12T00:34:50.943Z,100834.47
2022-08-12T00:37:44.177Z,100835.25
2022-08-12T00:40:42.574Z,100824.31
2022-08-12T00:43:22.709Z,100832.06
2022-08-12T00:46:20.022Z,100835.25
2022-08-12T00:49:01.802Z,100827.97
2022-08-12T00:51:58.447Z,100826.38
2022-08-12T00:54:35.273Z,100821.88
2022-08-12T00:57:25.824Z,100822.69
2022-08-12T01:00:11.884Z,100822.69
2022-08-12T01:02:58.909Z,100823.13
2022-08-12T01:05:56.091Z,100811.25
2022-08-12T01:08:50.654Z,100817.91
2022-08-12T01:11:35.418Z,100823.34
2022-08-12T01:14:13.792Z,100821.44
2022-08-12T01:17:02.833Z,100809.81
2022-08-12T01:19:41.442Z,100811.16
2022-08-12T01:22:40.977Z,100819.22
2022-08-12T01:25:28.381Z,100820.41
2022-08-12T01:28:16.384Z,100811.75
2022-08-12T01:31:07.419Z,100812.50
2022-08-12T01:33:55.839Z,100809.38
2022-08-12T01:36:41.377Z,100808.97
2022-08-12T01:39:17.016Z,100793.25
2022-08-12T01:42:06.370Z,100793.56
2022-08-12T01:44:42.883Z,100797.22
2022-08-12T01:47:30.957Z,100802.19
2022-08-12T01:50:46.854Z,100803.84
2022-08-12T01:53:50.149Z,100797.41
2022-08-12T01:56:32.775Z,100787.13
2022-08-12T01:59:36.431Z,100786.56
2022-08-12T02:02:39.560Z,100785.03
2022-08-12T02:05:44.827Z,100789.28
2022-08-12T02:09:25.566Z,100784.91
2022-08-12T02:12:33.169Z,100785.88
2022-08-12T02:15:25.399Z,100773.69
2022-08-12T02:18:17.193Z,100775.81
2022-08-12T02:21:20.782Z,100772.94
2022-08-12T02:24:01.372Z,100770.59
2022-08-12T02:26:42.818Z,100765.72
2022-08-12T02:29:22.181Z,100758.84
2022-08-12T02:31:59.400Z,100742.06
2022-08-12T02:34:36.111Z,100743.03
2022-08-12T02:37:13.495Z,100745.84
2022-08-12T02:39:51.886Z,100740.56
2022-08-12T02:42:39.980Z,100731.19
2022-08-12T02:45:25.320Z,100737.69
2022-08-12T02:48:08.312Z,100733.31
2022-08-12T02:50:48.076Z,100731.63
2022-08-12T02:53:30.858Z,100731.63
2022-08-12T02:56:14.860Z,100730.47
2022-08-12T02:59:04.604Z,100741.03
2022-08-12T03:01:51.703Z,100740.16
2022-08-12T03:04:43.709Z,100739.75
2022-08-12T03:07:56.134Z,100741.34
2022-08-12T03:10:40.914Z,100741.81
2022-08-12T03:13:35.365Z,100738.56
2022-08-12T03:16:13.556Z,100737.78
2022-08-12T03:18:52.109Z,100744.72
2022-08-12T03:21:56.519Z,100737.47
2022-08-12T03:24:34.173Z,100728.41
2022-08-12T03:27:11.241Z,100730.81
2022-08-12T03:29:51.514Z,100725.13
2022-08-12T03:32:41.587Z,100725.56
2022-08-12T03:35:40.594Z,100712.09
2022-08-12T03:38:18.783Z,100719.06
2022-08-12T03:41:39.681Z,100724.84
2022-08-12T03:44:50.003Z,100726.88
2022-08-12T03:48:21.689Z,100723.66
2022-08-12T03:51:10.929Z,100733.44
2022-08-12T03:54:10.644Z,100724.00
2022-08-12T03:57:03.124Z,100715.47
2022-08-12T03:59:57.787Z,100708.59
2022-08-12T04:02:34.817Z,100709.03
2022-08-12T04:05:12.863Z,100703.78
2022-08-12T04:07:57.829Z,100704.94
2022-08-12T04:10:59.815Z,100703.78
2022-08-12T04:13:38.803Z,100708.22
2022-08-12T04:16:24.023Z,100701.72
2022-08-12T04:19:07.455Z,100705.00
2022-08-12T04:22:01.414Z,100700.56
2022-08-12T04:24:50.684Z,100696.06
2022-08-12T04:27:25.878Z,100687.13
2022-08-12T04:30:30.340Z,100686.69
2022-08-12T04:33:19.788Z,100690.38
2022-08-12T04:36:05.865Z,100690.00
2022-08-12T04:38:49.301Z,100698.16
2022-08-12T04:41:28.856Z,100700.94
2022-08-12T04:44:07.054Z,100707.53
2022-08-12T04:46:45.534Z,100708.34
2022-08-12T04:49:24.353Z,100703.44
2022-08-12T04:52:04.212Z,100710.75
2022-08-12T04:54:44.150Z,100704.31
2022-08-12T04:57:28.201Z,100712.88
2022-08-12T05:00:23.407Z,100709.22
2022-08-12T05:02:58.117Z,100696.19
2022-08-12T05:05:36.440Z,100701.88
2022-08-12T05:08:26.946Z,100697.00
2022-08-12T05:11:06.200Z,100703.94
2022-08-12T05:13:41.374Z,100700.28
2022-08-12T05:16:25.971Z,100701.88
2022-08-12T05:19:12.908Z,100712.13
2022-08-12T05:21:57.534Z,100713.28
2022-08-12T05:24:38.841Z,100711.69
2022-08-12T05:27:17.826Z,100717.38
2022-08-12T05:30:07.265Z,100715.41
2022-08-12T05:32:53.745Z,100723.97
2022-08-12T05:35:32.116Z,100717.00
2022-08-12T05:38:28.087Z,100712.13
2022-08-12T05:41:20.040Z,100714.16
2022-08-12T05:44:11.578Z,100710.88
2022-08-12T05:46:48.338Z,100714.53
2022-08-12T05:49:22.089Z,100709.28
2022-08-12T05:52:04.041Z,100711.69
2022-08-12T05:54:56.194Z,100706.78
2022-08-12T05:57:48.503Z,100708.41
2022-08-12T06:00:29.418Z,100699.09
2022-08-12T06:03:06.237Z,100712.22
2022-08-12T06:05:55.006Z,100712.22
2022-08-12T06:08:30.111Z,100717.53
2022-08-12T06:11:10.439Z,100715.47
2022-08-12T06:13:53.213Z,100717.59
2022-08-12T06:16:28.393Z,100714.03
2022-08-12T06:19:05.848Z,100723.38
2022-08-12T06:21:37.831Z,100718.47
2022-08-12T06:24:21.271Z,100717.59
2022-08-12T06:26:54.025Z,100731.13
2022-08-12T06:30:06.508Z,100736.06
2022-08-12T06:32:30.025Z,100737.28
2022-08-12T06:35:25.182Z,100737.38
2022-08-12T06:38:27.729Z,100739.41
2022-08-12T06:41:22.558Z,100752.78
2022-08-12T06:44:04.717Z,100748.69
2022-08-12T06:46:46.411Z,100746.22
2022-08-12T06:49:22.992Z,100755.50
2022-08-12T06:51:59.444Z,100755.84
2022-08-12T06:54:32.738Z,100755.00
2022-08-12T06:58:05.419Z,100753.47
2022-08-12T07:00:15.170Z,100755.38
2022-08-12T07:02:51.048Z,100763.53
2022-08-12T07:05:31.102Z,100767.22
2022-08-12T07:08:17.124Z,100763.59
2022-08-12T07:11:05.821Z,100760.34
2022-08-12T07:14:11.994Z,100772.66
2022-08-12T07:16:56.724Z,100766.47
2022-08-12T07:19:40.443Z,100771.34
2022-08-12T07:22:23.328Z,100767.25
2022-08-12T07:25:24.138Z,100774.59
2022-08-12T07:28:14.070Z,100765.97
2022-08-12T07:30:49.359Z,100779.16
2022-08-12T07:33:34.054Z,100775.59
2022-08-12T07:36:15.116Z,100768.31
2022-08-12T07:38:55.787Z,100766.19
2022-08-12T07:41:41.429Z,100775.50
2022-08-12T07:44:28.221Z,100784.19
2022-08-12T07:47:08.908Z,100775.19
2022-08-12T07:50:05.493Z,100776.56
2022-08-12T07:52:48.386Z,100777.13
2022-08-12T07:55:24.170Z,100786.94
2022-08-12T07:58:05.834Z,100778.91
2022-08-12T08:00:46.312Z,100780.53
2022-08-12T08:03:25.978Z,100798.91
2022-08-12T08:05:59.166Z,100785.53
2022-08-12T08:08:33.524Z,100799.03
2022-08-12T08:11:24.228Z,100796.66
2022-08-12T08:14:04.488Z,100805.56
2022-08-12T08:16:34.025Z,100804.22
2022-08-12T08:19:17.184Z,100813.94
2022-08-12T08:21:51.110Z,100816.91
2022-08-12T08:24:21.726Z,100818.91
2022-08-12T08:26:58.491Z,100816.56
2022-08-12T08:29:27.030Z,100815.75
2022-08-12T08:32:01.525Z,100824.19
2022-08-12T08:34:57.109Z,100826.66
2022-08-12T08:37:33.086Z,100825.41
2022-08-12T08:40:27.726Z,100826.19
2022-08-12T08:43:01.434Z,100826.25
2022-08-12T08:45:31.992Z,100824.22
2022-08-12T08:48:05.683Z,100828.69
2022-08-12T08:50:41.343Z,100822.94
2022-08-12T08:53:21.228Z,100827.78
2022-08-12T08:56:04.740Z,100833.50
2022-08-12T08:58:41.199Z,100838.41
2022-08-12T09:01:18.525Z,100846.56
2022-08-12T09:05:10.124Z,100835.22
2022-08-12T09:06:58.633Z,100839.63
2022-08-12T09:10:01.617Z,100834.75
2022-08-12T09:12:46.020Z,100829.09
2022-08-12T09:15:35.301Z,100835.59
2022-08-12T09:18:13.097Z,100832.00
2022-08-12T09:20:50.999Z,100830.78
2022-08-12T09:24:00.217Z,100830.78
2022-08-12T09:26:28.176Z,100854.34
2022-08-12T09:29:11.724Z,100844.66
2022-08-12T09:32:03.402Z,100836.53
2022-08-12T09:34:50.810Z,100832.09
2022-08-12T09:37:28.564Z,100828.41
2022-08-12T09:41:01.467Z,100840.94
2022-08-12T09:43:46.867Z,100824.28
2022-08-12T09:46:31.449Z,100838.13
2022-08-12T09:49:16.327Z,100845.84
2022-08-12T09:51:50.509Z,100826.38
2022-08-12T09:54:34.394Z,100832.09
2022-08-12T09:58:46.071Z,100817.44
2022-08-12T10:00:37.503Z,100823.09
2022-08-12T10:03:31.992Z,100816.16
2022-08-12T10:06:27.005Z,100817.78
2022-08-12T10:09:10.763Z,100806.72
2022-08-12T10:12:11.272Z,100810.72
2022-08-12T10:14:54.260Z,100798.50
2022-08-12T10:17:34.682Z,100798.13
2022-08-12T10:20:29.750Z,100798.09
2022-08-12T10:23:12.859Z,100790.38
2022-08-12T10:26:35.002Z,100790.34
2022-08-12T10:30:03.067Z,100790.25
2022-08-12T10:32:44.132Z,100787.75
2022-08-12T10:35:37.815Z,100784.47
2022-08-12T10:38:37.801Z,100780.47
2022-08-12T10:41:58.594Z,100778.09
2022-08-12T10:44:29.778Z,100765.50
2022-08-12T10:47:26.692Z,100778.94
2022-08-12T10:50:35.434Z,100773.69
2022-08-12T10:53:09.546Z,100767.59
2022-08-12T10:55:56.175Z,100761.13
2022-08-12T10:58:39.800Z,100748.16
2022-08-12T11:01:49.850Z,100755.44
2022-08-12T11:04:39.541Z,100757.09
2022-08-12T11:08:35.854Z,100757.91
2022-08-12T11:10:26.911Z,100756.66
2022-08-12T11:13:09.111Z,100757.06
2022-08-12T11:16:03.988Z,100747.31
2022-08-12T11:18:38.449Z,100741.25
2022-08-12T11:21:15.977Z,100738.00
2022-08-12T11:23:55.160Z,100736.00
2022-08-12T11:26:36.456Z,100739.28
2022-08-12T11:29:22.339Z,100737.25
2022-08-12T11:32:02.332Z,100739.28
2022-08-12T11:34:53.664Z,100727.13
2022-08-12T11:37:28.121Z,100734.81
2022-08-12T11:42:46.056Z,100734.81
2022-08-12T11:45:20.015Z,100733.19
2022-08-12T11:47:59.456Z,100731.94
2022-08-12T11:50:33.182Z,100737.19
2022-08-12T11:53:56.433Z,100734.78
2022-08-12T11:56:06.345Z,100723.84
2022-08-12T12:02:00.731Z,100729.50
2022-08-12T12:04:42.821Z,100725.81
2022-08-12T12:08:37.533Z,100717.72
2022-08-12T12:10:32.995Z,100722.25
2022-08-12T12:13:23.329Z,100716.16
2022-08-12T12:16:11.705Z,100717.81
2022-08-12T12:18:54.231Z,100709.31
2022-08-12T12:21:48.784Z,100703.59
2022-08-12T12:24:31.363Z,100697.50
2022-08-12T12:27:09.218Z,100696.28
2022-08-12T12:30:13.503Z,100697.09
2022-08-12T12:32:53.328Z,100701.13
2022-08-12T12:36:16.695Z,100694.22
2022-08-12T12:38:14.961Z,100687.72
2022-08-12T12:40:50.264Z,100683.25
2022-08-12T12:43:28.881Z,100680.41
2022-08-12T12:46:10.737Z,100671.94
2022-08-12T12:48:47.443Z,100677.63
2022-08-12T12:51:22.247Z,100671.50
2022-08-12T12:54:09.873Z,100668.25
2022-08-12T12:56:42.732Z,100667.03
2022-08-12T12:59:54.594Z,100655.69
2022-08-12T13:02:31.488Z,100661.78
2022-08-12T13:05:16.319Z,100662.25
2022-08-12T13:08:12.585Z,100659.81
2022-08-12T13:10:51.174Z,100661.38
2022-08-12T13:14:07.277Z,100656.97
2022-08-12T13:16:30.851Z,100655.38
2022-08-12T13:19:12.279Z,100651.34
2022-08-12T13:22:12.483Z,100653.78
2022-08-12T13:24:56.158Z,100652.56
2022-08-12T13:27:46.283Z,100653.38
2022-08-12T13:30:29.285Z,100653.41
2022-08-12T13:33:06.578Z,100642.06
2022-08-12T13:36:06.245Z,100635.50
2022-08-12T13:38:52.139Z,100633.13
2022-08-12T13:41:34.403Z,100637.22
2022-08-12T13:44:10.701Z,100629.09
2022-08-12T13:46:58.608Z,100621.31
2022-08-12T13:49:59.842Z,100633.53
2022-08-12T13:52:35.745Z,100628.22
2022-08-12T13:55:08.060Z,100622.56
2022-08-12T13:57:47.057Z,100626.59
2022-08-12T14:00:23.828Z,100628.22
2022-08-12T14:03:18.446Z,100637.97
2022-08-12T14:05:55.433Z,100625.81
2022-08-12T14:08:35.721Z,100628.25
2022-08-12T14:11:12.417Z,100626.66
2022-08-12T14:14:03.576Z,100624.66
2022-08-12T14:16:53.838Z,100620.59
2022-08-12T14:19:35.948Z,100610.88
2022-08-12T14:22:14.909Z,100613.72
2022-08-12T14:24:56.533Z,100603.16
2022-08-12T14:28:04.706Z,100600.72
2022-08-12T14:30:28.879Z,100592.25
2022-08-12T14:33:09.118Z,100591.47
2022-08-12T14:35:48.456Z,100581.31
2022-08-12T14:38:29.712Z,100589.84
2022-08-12T14:41:14.764Z,100587.34
2022-08-12T14:44:04.736Z,100588.59
2022-08-12T14:46:59.316Z,100588.22
2022-08-12T14:50:37.455Z,100592.28
2022-08-12T14:59:20.439Z,100601.19
2022-08-12T15:01:57.854Z,100606.91
2022-08-12T15:04:39.770Z,100597.56
2022-08-12T15:07:49.308Z,100594.34
2022-08-12T15:10:34.185Z,100597.91
2022-08-12T15:13:09.876Z,100593.97
2022-08-12T15:15:47.377Z,100591.16
2022-08-12T15:18:21.356Z,100597.19
2022-08-12T15:21:04.361Z,100592.31
2022-08-12T15:23:54.809Z,100593.59
2022-08-12T15:26:35.762Z,100593.19
2022-08-12T15:29:14.465Z,100592.78
2022-08-12T15:32:00.679Z,100580.59
2022-08-12T15:34:38.977Z,100587.13
2022-08-12T15:37:11.892Z,100589.13
2022-08-12T15:39:55.404Z,100579.44
2022-08-12T15:42:33.817Z,100589.59
2022-08-12T15:45:10.910Z,100596.09
2022-08-12T15:48:16.087Z,100598.13
2022-08-12T15:50:56.321Z,100598.94
2022-08-12T15:53:54.853Z,100609.81
2022-08-12T15:56:29.396Z,100598.94
2022-08-12T15:59:02.077Z,100597.31
2022-08-12T16:01:36.451Z,100617.16
2022-08-12T16:04:07.657Z,100605.00
2022-08-12T16:07:03.656Z,100627.78
2022-08-12T16:09:56.205Z,100639.13
2022-08-12T16:12:25.684Z,100641.16
2022-08-12T16:14:56.793Z,100653.69
2022-08-12T16:18:14.960Z,100662.19
2022-08-12T16:20:33.294Z,100669.88
2022-08-12T16:23:36.302Z,100667.03
2022-08-12T16:26:20.359Z,100677.16
2022-08-12T16:29:15.680Z,100689.28
2022-08-12T16:31:54.707Z,100727.66
2022-08-12T16:34:42.543Z,100751.84
2022-08-12T16:38:25.760Z,100770.00
2022-08-12T16:40:36.515Z,100761.03
2022-08-12T16:43:28.246Z,100732.94
2022-08-12T16:46:24.125Z,100703.69
2022-08-12T16:49:08.859Z,100689.47
2022-08-12T16:51:52.481Z,100706.91
2022-08-12T16:54:37.248Z,100777.84
2022-08-12T16:57:34.856Z,100818.81
2022-08-12T17:00:27.406Z,100820.41
2022-08-12T17:03:01.587Z,100802.16
2022-08-12T17:05:40.565Z,100804.16
2022-08-12T17:08:22.004Z,100819.56
2022-08-12T17:11:02.420Z,100831.72
2022-08-12T17:13:53.361Z,100838.56
2022-08-12T17:16:30.562Z,100838.19
2022-08-12T17:19:08.970Z,100830.84
2022-08-12T17:21:51.951Z,100813.34
2022-08-12T17:24:43.965Z,100801.19
2022-08-12T17:27:26.637Z,100795.09
2022-08-12T17:30:10.178Z,100794.25
2022-08-12T17:32:44.257Z,100793.03
2022-08-12T17:35:37.497Z,100774.75
2022-08-12T17:38:23.158Z,100773.50
2022-08-12T17:40:57.727Z,100768.22
2022-08-12T17:43:56.201Z,100751.56
2022-08-12T17:46:34.002Z,100738.56
2022-08-12T17:49:18.795Z,100739.38
2022-08-12T17:52:02.276Z,100728.03
2022-08-12T17:54:37.181Z,100723.50
2022-08-12T17:57:16.583Z,100748.69
2022-08-12T17:59:49.429Z,100761.66
2022-08-12T18:02:30.911Z,100755.56
2022-08-12T18:05:10.089Z,100746.63
2022-08-12T18:07:45.039Z,100744.59
2022-08-12T18:10:42.980Z,100761.25
2022-08-12T18:13:40.811Z,100779.91
2022-08-12T18:16:23.285Z,100794.88
2022-08-12T18:18:58.632Z,100797.34
2022-08-12T18:22:02.213Z,100801.81
2022-08-12T18:24:38.550Z,100779.84
2022-08-12T18:27:30.068Z,100736.81
2022-08-12T18:30:09.313Z,100728.28
2022-08-12T18:32:58.399Z,100733.56
2022-08-12T18:35:46.351Z,100719.75
2022-08-12T18:38:28.282Z,100720.53
2022-08-12T18:41:22.799Z,100721.28
2022-08-12T18:44:09.307Z,100739.16
2022-08-12T18:46:55.771Z,100729.38
2022-08-12T18:49:39.589Z,100736.31
2022-08-12T18:52:16.617Z,100758.66
2022-08-12T18:54:59.315Z,100789.88
2022-08-12T18:58:07.467Z,100800.81
2022-08-12T19:00:49.626Z,100836.56
2022-08-12T19:03:39.861Z,100838.19
2022-08-12T19:06:16.109Z,100831.72
2022-08-12T19:08:53.485Z,100826.81
2022-08-12T19:11:49.219Z,100821.53
2022-08-12T19:14:30.322Z,100810.16
2022-08-12T19:17:07.410Z,100813.41
2022-08-12T19:19:43.565Z,100848.34
2022-08-12T19:22:39.815Z,100858.47
2022-08-12T19:25:22.685Z,100858.47
2022-08-12T19:28:30.414Z,100863.66
2022-08-12T19:31:44.804Z,100864.88
2022-08-12T19:38:02.602Z,100834.03
2022-08-12T19:40:32.679Z,100832.84
2022-08-12T19:43:13.403Z,100841.38
2022-08-12T19:46:02.085Z,100854.75
2022-08-12T19:48:41.139Z,100873.03
2022-08-12T19:51:33.645Z,100881.56
2022-08-12T19:54:12.376Z,100894.56
2022-08-12T19:56:57.522Z,100903.94
2022-08-12T19:59:43.190Z,100901.50
2022-08-12T20:02:40.483Z,100906.38
2022-08-12T20:06:06.739Z,100901.88
2022-08-12T20:08:32.853Z,100898.63
2022-08-12T20:12:13.026Z,100889.31
2022-08-12T20:14:00.173Z,100874.69
2022-08-12T20:16:52.277Z,100872.69
2022-08-12T20:20:05.671Z,100869.41
2022-08-12T20:22:31.716Z,100871.81
2022-08-12T20:25:12.533Z,100877.50
2022-08-12T20:28:04.738Z,100876.69
2022-08-12T20:30:53.346Z,100873.03
2022-08-12T20:33:32.837Z,100874.66
2022-08-12T20:36:40.713Z,100894.97
2022-08-12T20:39:52.231Z,100895.75
2022-08-12T20:42:19.011Z,100896.56
2022-08-12T20:44:56.238Z,100895.75
2022-08-12T20:47:42.170Z,100891.69
2022-08-12T20:50:18.573Z,100909.09
2022-08-12T20:53:01.069Z,100885.97
2022-08-12T20:55:45.089Z,100887.56
2022-08-12T20:58:29.884Z,100903.41
2022-08-12T21:01:05.853Z,100908.28
2022-08-12T21:03:58.091Z,100898.97
2022-08-12T21:06:47.735Z,100881.88
2022-08-12T21:09:42.173Z,100871.75
2022-08-12T21:12:32.820Z,100872.97
2022-08-12T21:15:23.464Z,100894.50
2022-08-12T21:18:11.378Z,100888.81
2022-08-12T21:21:23.153Z,100893.69
2022-08-12T21:24:03.606Z,100885.53
2022-08-12T21:26:40.086Z,100867.28
2022-08-12T21:29:20.518Z,100869.31
2022-08-12T21:32:39.735Z,100878.25
2022-08-12T21:34:57.005Z,100876.63
2022-08-12T21:37:41.716Z,100873.78
2022-08-12T21:40:13.321Z,100858.72
2022-08-12T21:42:45.753Z,100864.81
2022-08-12T21:45:47.004Z,100849.00
2022-08-12T21:48:09.979Z,100837.63
2022-08-12T21:50:51.134Z,100833.97
2022-08-12T21:54:05.794Z,100838.81
2022-08-12T21:56:34.445Z,100838.81
2022-08-12T21:59:14.655Z,100833.53
2022-08-12T22:01:51.616Z,100838.41
2022-08-12T22:04:49.614Z,100827.44
2022-08-12T22:07:27.777Z,100833.97
2022-08-12T22:10:01.756Z,100840.88
2022-08-12T22:12:45.645Z,100838.81
2022-08-12T22:15:23.317Z,100842.91
2022-08-12T22:18:07.372Z,100851.03
2022-08-12T22:20:48.297Z,100842.09
2022-08-12T22:23:51.197Z,100850.19
2022-08-12T22:26:29.385Z,100849.00
2022-08-12T22:29:33.243Z,100839.56
2022-08-12T22:32:07.665Z,100834.19
2022-08-12T22:35:09.090Z,100821.66
2022-08-12T22:37:46.260Z,100818.41
2022-08-12T22:40:16.709Z,100826.13
2022-08-12T22:43:18.786Z,100826.56
2022-08-12T22:46:33.285Z,100832.69
2022-08-12T22:49:06.641Z,100823.28
2022-08-12T22:52:01.313Z,100825.34
2022-08-12T22:55:02.542Z,100813.56
2022-08-12T22:57:53.817Z,100804.63
2022-08-12T23:00:32.786Z,100801.00
2022-08-12T23:03:48.708Z,100809.53
2022-08-12T23:06:05.555Z,100809.53
2022-08-12T23:08:46.665Z,100802.63
2022-08-12T23:11:23.669Z,100796.53
2022-08-12T23:14:04.265Z,100808.72
2022-08-12T23:16:36.023Z,100796.53
2022-08-12T23:19:29.843Z,100796.09
2022-08-12T23:23:05.898Z,100805.88
2022-08-12T23:25:18.790Z,100805.88
2022-08-12T23:28:29.558Z,100810.75
2022-08-12T23:31:07.281Z,100810.75
2022-08-12T23:34:01.409Z,100814.06
2022-08-12T23:36:43.581Z,100808.38
2022-08-12T23:40:13.606Z,100809.16
2022-08-12T23:42:17.678Z,100796.97
2022-08-12T23:44:55.625Z,100798.59
2022-08-12T23:47:28.736Z,100797.78
2022-08-12T23:50:13.140Z,100798.19
2022-08-12T23:52:49.196Z,100796.16
2022-08-12T23:55:25.184Z,100799.38
2022-08-12T23:58:21.854Z,100795.75
